Time;durP1;ratioP1;P1;durP2;ratioP2;P2;SDS_P1;SDS_P2;PMS_P1;PMS_P2;Temp;Humidity;BMP_temperature;BMP_pressure;BME280_temperature;BME280_humidity;BME280_pressure;Samples;Min_cycle;Max_cycle;Signal;HPM_P1;HPM_P2
2024/01/05 00:00:44;;;;;;;12.02;5.68;;;;;;;;;;4997977;28;20025;-72
2024/01/05 00:03:09;;;;;;;10.15;5.57;;;;;;;;;;5001957;28;20102;-72
2024/01/05 00:05:35;;;;;;;8.80;4.93;;;;;;;;;;4989580;28;20125;-72
2024/01/05 00:08:02;;;;;;;10.82;5.55;;;;;;;;;;4992137;28;20030;-73
2024/01/05 00:10:27;;;;;;;7.55;4.10;;;;;;;;;;4991689;28;20046;-72
2024/01/05 00:12:53;;;;;;;7.80;4.13;;;;;;;;;;4992941;28;20157;-72
2024/01/05 00:15:19;;;;;;;10.23;3.92;;;;;;;;;;4992816;28;20501;-72
2024/01/05 00:17:45;;;;;;;9.50;4.47;;;;;;;;;;4992990;28;20018;-72
2024/01/05 00:20:11;;;;;;;13.82;3.67;;;;;;;;;;4991756;28;20049;-72
2024/01/05 00:22:37;;;;;;;9.95;3.53;;;;;;;;;;4993049;28;20034;-71
2024/01/05 00:25:03;;;;;;;6.45;2.67;;;;;;;;;;4992668;28;20387;-72
2024/01/05 00:27:30;;;;;;;6.53;3.25;;;;;;;;;;4992652;28;20041;-72
2024/01/05 00:29:56;;;;;;;9.38;2.70;;;;;;;;;;4992809;28;20306;-71
2024/01/05 00:32:22;;;;;;;6.05;2.80;;;;;;;;;;4993168;28;20034;-71
2024/01/05 00:34:47;;;;;;;3.88;2.30;;;;;;;;;;4991387;28;20030;-71
2024/01/05 00:37:13;;;;;;;7.10;2.42;;;;;;;;;;4991489;28;20563;-71
2024/01/05 00:39:40;;;;;;;9.13;2.83;;;;;;;;;;4992093;28;20038;-72
2024/01/05 00:42:06;;;;;;;6.07;2.33;;;;;;;;;;4992865;28;20030;-73
2024/01/05 00:44:31;;;;;;;5.18;2.30;;;;;;;;;;4989306;28;20496;-72
2024/01/05 00:46:57;;;;;;;5.63;2.53;;;;;;;;;;4988955;28;20042;-71
2024/01/05 00:49:23;;;;;;;6.57;2.38;;;;;;;;;;4989847;28;20038;-71
2024/01/05 00:51:48;;;;;;;4.30;2.35;;;;;;;;;;4989294;28;20062;-71
2024/01/05 00:54:14;;;;;;;5.32;2.33;;;;;;;;;;4989259;28;20117;-71
2024/01/05 00:56:40;;;;;;;5.70;2.40;;;;;;;;;;4988953;28;20031;-71
2024/01/05 00:59:06;;;;;;;20.00;9.00;;;;;;;;;;4989889;28;20045;-71
2024/01/05 01:01:32;;;;;;;15.18;7.07;;;;;;;;;;4989577;28;20038;-71
2024/01/05 01:03:58;;;;;;;10.32;4.43;;;;;;;;;;4988838;28;20077;-71
2024/01/05 01:06:24;;;;;;;10.07;5.05;;;;;;;;;;4987839;28;20041;-70
2024/01/05 01:08:50;;;;;;;14.30;7.10;;;;;;;;;;4987675;28;20026;-71
2024/01/05 01:11:17;;;;;;;6.55;3.50;;;;;;;;;;4988460;28;20022;-71
2024/01/05 01:13:44;;;;;;;10.57;5.15;;;;;;;;;;4989193;28;20038;-71
2024/01/05 01:16:14;;;;;;;12.85;4.55;;;;;;;;;;4988951;28;20052;-71
2024/01/05 01:18:41;;;;;;;6.68;3.50;;;;;;;;;;4990008;28;20084;-73
2024/01/05 01:21:06;;;;;;;8.15;3.97;;;;;;;;;;4989035;28;20037;-71
2024/01/05 01:23:33;;;;;;;11.30;4.43;;;;;;;;;;4987563;28;20278;-72
2024/01/05 01:25:59;;;;;;;10.10;4.18;;;;;;;;;;4988550;28;20108;-71
2024/01/05 01:28:25;;;;;;;15.55;5.00;;;;;;;;;;4988160;28;20057;-71
2024/01/05 01:30:50;;;;;;;12.88;5.55;;;;;;;;;;4987941;28;20043;-71
2024/01/05 01:33:16;;;;;;;9.07;4.95;;;;;;;;;;4987650;28;20026;-71
2024/01/05 01:35:42;;;;;;;11.45;5.00;;;;;;;;;;4989010;28;20065;-71
2024/01/05 01:38:08;;;;;;;9.07;5.20;;;;;;;;;;4989296;28;20039;-71
2024/01/05 01:40:34;;;;;;;11.13;4.53;;;;;;;;;;4988607;28;20039;-72
2024/01/05 01:42:59;;;;;;;7.72;3.72;;;;;;;;;;4988651;28;20038;-71
2024/01/05 01:45:26;;;;;;;9.30;4.82;;;;;;;;;;4988636;28;20232;-72
2024/01/05 01:47:52;;;;;;;10.02;4.47;;;;;;;;;;4988677;28;20038;-74
2024/01/05 01:50:18;;;;;;;10.65;4.75;;;;;;;;;;4988964;28;20101;-70
2024/01/05 01:52:46;;;;;;;8.88;4.68;;;;;;;;;;4988546;28;20042;-70
2024/01/05 01:55:16;;;;;;;9.82;4.78;;;;;;;;;;4987798;28;20026;-71
2024/01/05 01:57:42;;;;;;;10.23;4.90;;;;;;;;;;4987914;28;20038;-72
2024/01/05 02:00:10;;;;;;;8.52;4.28;;;;;;;;;;4992647;28;20050;-72
2024/01/05 02:02:37;;;;;;;6.82;4.13;;;;;;;;;;4990715;28;20033;-71
2024/01/05 02:05:05;;;;;;;14.63;4.88;;;;;;;;;;4993326;28;20038;-71
2024/01/05 02:07:31;;;;;;;11.20;4.70;;;;;;;;;;4993346;28;20030;-71
2024/01/05 02:09:57;;;;;;;7.70;4.03;;;;;;;;;;4993419;28;20037;-71
2024/01/05 02:12:22;;;;;;;7.93;3.78;;;;;;;;;;4991472;28;20117;-71
2024/01/05 02:14:48;;;;;;;7.25;4.00;;;;;;;;;;4992818;28;20026;-71
2024/01/05 02:17:30;;;;;;;10.20;4.07;;;;;;;;;;4993059;28;20480;-72
2024/01/05 02:19:56;;;;;;;12.90;4.50;;;;;;;;;;4992075;28;20062;-72
2024/01/05 02:22:26;;;;;;;10.32;4.47;;;;;;;;;;4993026;28;20030;-72
2024/01/05 02:24:52;;;;;;;10.88;4.40;;;;;;;;;;4992737;28;20117;-72
2024/01/05 02:27:17;;;;;;;9.88;4.35;;;;;;;;;;4991537;28;20121;-74
2024/01/05 02:29:43;;;;;;;11.13;5.47;;;;;;;;;;5003724;28;20065;-72
2024/01/05 02:32:09;;;;;;;12.13;5.63;;;;;;;;;;4993113;28;20121;-73
2024/01/05 02:34:35;;;;;;;10.07;5.95;;;;;;;;;;4991587;28;20026;-71
2024/01/05 02:37:01;;;;;;;11.63;6.80;;;;;;;;;;4991208;28;20400;-72
2024/01/05 02:39:26;;;;;;;14.80;7.20;;;;;;;;;;4991351;28;20027;-74
2024/01/05 02:41:52;;;;;;;10.38;5.15;;;;;;;;;;4991279;28;20120;-70
2024/01/05 02:44:18;;;;;;;11.00;5.93;;;;;;;;;;4991233;28;20058;-70
2024/01/05 02:46:43;;;;;;;11.93;6.20;;;;;;;;;;4991357;28;20029;-71
2024/01/05 02:49:10;;;;;;;13.10;6.53;;;;;;;;;;4991711;28;20048;-72
2024/01/05 02:51:36;;;;;;;15.75;6.82;;;;;;;;;;4993076;28;20113;-71
2024/01/05 02:54:01;;;;;;;13.75;6.80;;;;;;;;;;4992845;28;20026;-71
2024/01/05 02:56:27;;;;;;;11.15;6.13;;;;;;;;;;4991760;28;20038;-71
2024/01/05 02:58:54;;;;;;;13.43;6.18;;;;;;;;;;4993026;28;20476;-71
2024/01/05 03:01:19;;;;;;;12.40;5.68;;;;;;;;;;4992726;28;20030;-71
2024/01/05 03:03:49;;;;;;;12.88;6.65;;;;;;;;;;4992591;28;20037;-71
2024/01/05 03:06:16;;;;;;;13.98;7.25;;;;;;;;;;4992278;28;20041;-71
2024/01/05 03:08:45;;;;;;;16.90;7.78;;;;;;;;;;5007820;28;20034;-71
2024/01/05 03:11:11;;;;;;;15.93;6.30;;;;;;;;;;4991942;28;20042;-71
2024/01/05 03:13:37;;;;;;;12.25;7.10;;;;;;;;;;4991218;28;20472;-71
2024/01/05 03:16:06;;;;;;;11.88;7.20;;;;;;;;;;4992405;28;20432;-71
2024/01/05 03:18:33;;;;;;;14.15;6.57;;;;;;;;;;4984572;28;20014;-73
2024/01/05 03:20:58;;;;;;;14.63;6.50;;;;;;;;;;4992107;28;20050;-71
2024/01/05 03:23:24;;;;;;;12.32;6.32;;;;;;;;;;4992532;28;20038;-71
2024/01/05 03:25:53;;;;;;;10.68;6.60;;;;;;;;;;4992530;28;20082;-71
2024/01/05 03:28:19;;;;;;;12.50;6.18;;;;;;;;;;4992648;28;20061;-72
2024/01/05 03:30:44;;;;;;;13.68;6.18;;;;;;;;;;4991212;28;20496;-71
2024/01/05 03:33:10;;;;;;;18.02;7.05;;;;;;;;;;4992331;28;20030;-73
2024/01/05 03:35:37;;;;;;;15.05;7.50;;;;;;;;;;4998968;28;20030;-72
2024/01/05 03:38:07;;;;;;;13.68;6.20;;;;;;;;;;4992156;28;20584;-72
2024/01/05 03:40:33;;;;;;;16.95;8.10;;;;;;;;;;4992517;28;20331;-73
2024/01/05 03:42:59;;;;;;;15.02;8.13;;;;;;;;;;4992369;28;20047;-71
2024/01/05 03:45:24;;;;;;;16.17;8.18;;;;;;;;;;4992264;28;20034;-72
2024/01/05 03:47:50;;;;;;;16.85;8.35;;;;;;;;;;4992312;28;20540;-71
2024/01/05 03:50:16;;;;;;;21.45;8.13;;;;;;;;;;5024120;28;20100;-72
2024/01/05 03:52:42;;;;;;;16.98;8.05;;;;;;;;;;4992380;28;20064;-73
2024/01/05 03:55:07;;;;;;;16.92;7.45;;;;;;;;;;4990861;28;20030;-72
2024/01/05 03:57:33;;;;;;;22.05;8.38;;;;;;;;;;4984178;28;20037;-71
2024/01/05 04:00:00;;;;;;;14.27;7.82;;;;;;;;;;4996986;28;20041;-71
2024/01/05 04:02:26;;;;;;;17.38;7.20;;;;;;;;;;4991759;28;20477;-72
2024/01/05 04:04:51;;;;;;;18.27;8.70;;;;;;;;;;4990958;28;20049;-71
2024/01/05 04:07:17;;;;;;;15.48;7.65;;;;;;;;;;4992218;28;20035;-72
2024/01/05 04:09:42;;;;;;;14.25;7.45;;;;;;;;;;4991307;28;20034;-72
2024/01/05 04:12:09;;;;;;;17.85;8.05;;;;;;;;;;4992293;28;20018;-72
2024/01/05 04:14:35;;;;;;;22.58;8.23;;;;;;;;;;4991200;28;20484;-72
2024/01/05 04:17:01;;;;;;;16.08;6.85;;;;;;;;;;4992523;28;20038;-71
2024/01/05 04:19:29;;;;;;;13.95;7.32;;;;;;;;;;4988856;28;20064;-72
2024/01/05 04:21:55;;;;;;;16.98;7.13;;;;;;;;;;4992386;28;20040;-72
2024/01/05 04:24:21;;;;;;;15.18;6.82;;;;;;;;;;4995365;28;20117;-70
2024/01/05 04:26:48;;;;;;;14.95;7.22;;;;;;;;;;4995797;28;20478;-72
2024/01/05 04:29:14;;;;;;;16.27;8.07;;;;;;;;;;4995687;28;20031;-72
2024/01/05 04:31:40;;;;;;;16.63;7.97;;;;;;;;;;4994802;28;20030;-71
2024/01/05 04:34:05;;;;;;;16.65;8.18;;;;;;;;;;4995621;28;20054;-74
2024/01/05 04:36:31;;;;;;;16.85;8.48;;;;;;;;;;4993455;28;20128;-72
2024/01/05 04:38:58;;;;;;;20.15;8.85;;;;;;;;;;4995499;28;20613;-72
2024/01/05 04:41:25;;;;;;;22.95;9.35;;;;;;;;;;4992446;28;20034;-71
2024/01/05 04:43:50;;;;;;;20.38;7.13;;;;;;;;;;4995101;28;20023;-72
2024/01/05 04:46:17;;;;;;;14.05;6.88;;;;;;;;;;4994860;28;20030;-71
2024/01/05 04:48:43;;;;;;;24.63;7.72;;;;;;;;;;4994902;28;20022;-71
2024/01/05 04:51:09;;;;;;;17.35;7.18;;;;;;;;;;4997433;28;20064;-75
2024/01/05 04:53:35;;;;;;;22.30;7.88;;;;;;;;;;4994887;28;20026;-71
2024/01/05 04:56:01;;;;;;;15.02;6.03;;;;;;;;;;4994876;28;20048;-72
2024/01/05 04:58:27;;;;;;;11.50;5.88;;;;;;;;;;4993386;28;20038;-71
2024/01/05 05:00:55;;;;;;;14.45;6.35;;;;;;;;;;4994824;28;20095;-73
2024/01/05 05:03:21;;;;;;;11.10;5.53;;;;;;;;;;4994691;28;20053;-72
2024/01/05 05:05:47;;;;;;;12.65;5.93;;;;;;;;;;4994569;28;20030;-72
2024/01/05 05:08:14;;;;;;;15.07;5.85;;;;;;;;;;4994831;28;20089;-71
2024/01/05 05:10:40;;;;;;;20.25;6.43;;;;;;;;;;4986736;28;20472;-71
2024/01/05 05:13:06;;;;;;;18.77;7.00;;;;;;;;;;4993562;28;20065;-71
2024/01/05 05:15:32;;;;;;;16.45;6.22;;;;;;;;;;4977014;28;20088;-71
2024/01/05 05:17:58;;;;;;;23.13;8.00;;;;;;;;;;4994380;28;20439;-70
2024/01/05 05:20:24;;;;;;;21.45;7.50;;;;;;;;;;4992742;28;20030;-71
2024/01/05 05:22:49;;;;;;;21.67;6.90;;;;;;;;;;4994211;28;20031;-72
2024/01/05 05:25:19;;;;;;;19.73;6.88;;;;;;;;;;4989738;28;20062;-71
2024/01/05 05:27:44;;;;;;;14.65;7.57;;;;;;;;;;4992930;28;20030;-71
2024/01/05 05:30:10;;;;;;;30.33;9.18;;;;;;;;;;4994501;28;20034;-71
2024/01/05 05:32:36;;;;;;;23.42;9.18;;;;;;;;;;4993554;28;20480;-72
2024/01/05 05:35:02;;;;;;;22.88;10.07;;;;;;;;;;5003276;28;20033;-72
2024/01/05 05:37:28;;;;;;;18.40;8.90;;;;;;;;;;4993508;28;20496;-71
2024/01/05 05:39:53;;;;;;;16.60;6.80;;;;;;;;;;4993428;28;20560;-72
2024/01/05 05:42:19;;;;;;;22.98;8.10;;;;;;;;;;4993793;28;20547;-72
2024/01/05 05:44:46;;;;;;;21.85;8.82;;;;;;;;;;4994120;28;20113;-72
2024/01/05 05:47:12;;;;;;;24.15;9.82;;;;;;;;;;4990254;28;20124;-72
2024/01/05 05:49:37;;;;;;;27.02;9.68;;;;;;;;;;4991370;28;20032;-71
2024/01/05 05:52:05;;;;;;;35.92;11.65;;;;;;;;;;4992528;28;20061;-72
2024/01/05 05:54:31;;;;;;;30.95;11.65;;;;;;;;;;4991479;28;20029;-73
2024/01/05 05:56:57;;;;;;;32.70;11.20;;;;;;;;;;4990281;28;20092;-73
2024/01/05 05:59:23;;;;;;;37.15;13.10;;;;;;;;;;4975971;28;20439;-73
2024/01/05 06:01:49;;;;;;;32.42;12.35;;;;;;;;;;4992545;28;20034;-74
2024/01/05 06:04:15;;;;;;;25.77;13.30;;;;;;;;;;4992025;28;20038;-71
2024/01/05 06:06:41;;;;;;;24.52;11.80;;;;;;;;;;4985360;28;20428;-73
2024/01/05 06:09:07;;;;;;;29.98;11.35;;;;;;;;;;4992675;28;20049;-76
2024/01/05 06:11:33;;;;;;;25.65;8.65;;;;;;;;;;4993122;28;20031;-74
2024/01/05 06:14:00;;;;;;;13.75;7.18;;;;;;;;;;4992832;28;20081;-72
2024/01/05 06:16:26;;;;;;;14.88;6.47;;;;;;;;;;4999910;28;20034;-74
2024/01/05 06:18:53;;;;;;;14.50;8.30;;;;;;;;;;4984785;28;20423;-73
2024/01/05 06:21:18;;;;;;;20.33;9.48;;;;;;;;;;4985612;28;20081;-72
2024/01/05 06:23:44;;;;;;;25.45;8.35;;;;;;;;;;4992160;28;20057;-71
2024/01/05 06:26:09;;;;;;;17.95;8.35;;;;;;;;;;5003086;28;20444;-71
2024/01/05 06:28:35;;;;;;;28.25;9.68;;;;;;;;;;4991263;28;20034;-73
2024/01/05 06:31:01;;;;;;;30.83;8.75;;;;;;;;;;4988850;28;20526;-73
2024/01/05 06:33:27;;;;;;;19.02;8.45;;;;;;;;;;4991377;28;20030;-73
2024/01/05 06:35:52;;;;;;;18.27;7.70;;;;;;;;;;4989629;28;20109;-74
2024/01/05 06:38:18;;;;;;;23.05;8.63;;;;;;;;;;4990156;28;20121;-73
2024/01/05 06:40:44;;;;;;;18.02;8.90;;;;;;;;;;4990231;28;20030;-73
2024/01/05 06:43:10;;;;;;;19.60;8.73;;;;;;;;;;5006328;28;20496;-72
2024/01/05 06:45:37;;;;;;;27.27;9.13;;;;;;;;;;4990088;28;20080;-72
2024/01/05 06:48:03;;;;;;;16.05;7.57;;;;;;;;;;4989394;28;20026;-73
2024/01/05 06:50:29;;;;;;;19.05;6.65;;;;;;;;;;4999359;28;20037;-73
2024/01/05 06:52:54;;;;;;;11.85;5.80;;;;;;;;;;4994832;28;20030;-73
2024/01/05 06:55:20;;;;;;;14.88;6.43;;;;;;;;;;4993397;28;20057;-72
2024/01/05 06:57:47;;;;;;;12.82;5.45;;;;;;;;;;4990249;28;20488;-72
2024/01/05 07:00:14;;;;;;;10.77;5.30;;;;;;;;;;4990011;28;20044;-71
2024/01/05 07:02:40;;;;;;;13.23;6.05;;;;;;;;;;4989867;28;20026;-71
2024/01/05 07:05:06;;;;;;;13.65;5.68;;;;;;;;;;4991148;28;20044;-72
2024/01/05 07:07:32;;;;;;;9.75;5.20;;;;;;;;;;4990722;28;20031;-71
2024/01/05 07:09:58;;;;;;;9.77;4.40;;;;;;;;;;5004730;28;20026;-71
2024/01/05 07:12:27;;;;;;;13.95;4.60;;;;;;;;;;4987620;28;20452;-73
2024/01/05 07:14:52;;;;;;;10.85;5.57;;;;;;;;;;5010314;28;20168;-73
2024/01/05 07:17:18;;;;;;;9.18;5.45;;;;;;;;;;5005319;28;20030;-73
2024/01/05 07:19:44;;;;;;;27.65;6.70;;;;;;;;;;5008861;28;20036;-74
2024/01/05 07:22:10;;;;;;;24.58;10.18;;;;;;;;;;4996658;28;20473;-73
2024/01/05 07:24:37;;;;;;;24.45;7.68;;;;;;;;;;4990079;28;20496;-74
2024/01/05 07:27:10;;;;;;;20.20;8.18;;;;;;;;;;4990715;28;20508;-73
2024/01/05 07:29:37;;;;;;;20.25;8.52;;;;;;;;;;5008969;28;20040;-73
2024/01/05 07:32:04;;;;;;;24.13;9.75;;;;;;;;;;4997493;28;20109;-71
2024/01/05 07:34:30;;;;;;;20.70;9.48;;;;;;;;;;4990043;28;20042;-72
2024/01/05 07:36:56;;;;;;;22.38;9.85;;;;;;;;;;4989695;28;20131;-72
2024/01/05 07:39:21;;;;;;;16.80;6.78;;;;;;;;;;4991076;28;20042;-72
2024/01/05 07:41:47;;;;;;;19.10;8.55;;;;;;;;;;5007798;28;20034;-73
2024/01/05 07:44:15;;;;;;;17.15;9.05;;;;;;;;;;4989241;28;20130;-72
2024/01/05 07:46:41;;;;;;;14.27;8.55;;;;;;;;;;4992845;28;20109;-72
2024/01/05 07:49:08;;;;;;;19.60;8.43;;;;;;;;;;4991663;28;20128;-72
2024/01/05 07:51:33;;;;;;;13.77;8.23;;;;;;;;;;5000146;28;20399;-72
2024/01/05 07:53:59;;;;;;;14.18;8.52;;;;;;;;;;4989331;28;20034;-72
2024/01/05 07:56:25;;;;;;;14.15;8.40;;;;;;;;;;4996223;28;20034;-73
2024/01/05 07:58:50;;;;;;;18.67;10.13;;;;;;;;;;5000044;28;20083;-73
2024/01/05 08:01:18;;;;;;;21.67;8.60;;;;;;;;;;4998494;28;20153;-72
2024/01/05 08:03:44;;;;;;;24.15;10.60;;;;;;;;;;4996180;28;20034;-73
2024/01/05 08:06:18;;;;;;;22.70;9.13;;;;;;;;;;4988372;28;20392;-72
2024/01/05 08:08:44;;;;;;;;;;;;;;;;;;5001875;28;20507;-74
2024/01/05 08:11:10;;;;;;;27.13;11.88;;;;;;;;;;5005887;28;19913;-73
2024/01/05 08:13:36;;;;;;;22.80;10.55;;;;;;;;;;4999057;28;20038;-73
2024/01/05 08:16:03;;;;;;;33.00;19.13;;;;;;;;;;5000010;28;20050;-73
2024/01/05 08:18:29;;;;;;;31.98;15.63;;;;;;;;;;5002707;28;20119;-72
2024/01/05 08:20:54;;;;;;;40.60;17.58;;;;;;;;;;4994932;28;20033;-72
2024/01/05 08:23:20;;;;;;;32.65;16.58;;;;;;;;;;4998659;28;20464;-73
2024/01/05 08:25:47;;;;;;;40.47;17.20;;;;;;;;;;5001069;28;20033;-72
2024/01/05 08:28:12;;;;;;;36.83;16.42;;;;;;;;;;4993659;28;20490;-76
2024/01/05 08:30:39;;;;;;;34.05;16.15;;;;;;;;;;5007717;28;20069;-73
2024/01/05 08:33:05;;;;;;;27.38;14.48;;;;;;;;;;4984517;28;20033;-74
2024/01/05 08:35:31;;;;;;;20.45;11.88;;;;;;;;;;5001776;28;20038;-73
2024/01/05 08:37:58;;;;;;;25.38;12.20;;;;;;;;;;4997609;28;20046;-73
2024/01/05 08:40:26;;;;;;;30.48;14.05;;;;;;;;;;5005284;28;20607;-75
2024/01/05 08:42:53;;;;;;;17.35;9.25;;;;;;;;;;5005880;28;20412;-73
2024/01/05 08:45:19;;;;;;;19.40;9.18;;;;;;;;;;5012521;28;20400;-71
2024/01/05 08:47:45;;;;;;;17.75;8.60;;;;;;;;;;5001903;28;20026;-72
2024/01/05 08:50:11;;;;;;;15.88;9.00;;;;;;;;;;5006972;28;20127;-74
2024/01/05 08:52:38;;;;;;;20.20;8.45;;;;;;;;;;4996625;28;20301;-73
2024/01/05 08:55:06;;;;;;;15.35;8.40;;;;;;;;;;4999136;28;20393;-71
2024/01/05 08:57:32;;;;;;;16.23;8.50;;;;;;;;;;4993668;28;20049;-73
2024/01/05 08:59:58;;;;;;;18.17;8.45;;;;;;;;;;4993055;28;20121;-72
2024/01/05 09:02:24;;;;;;;15.85;6.63;;;;;;;;;;4993750;28;20110;-72
2024/01/05 09:04:49;;;;;;;15.48;6.85;;;;;;;;;;4999623;28;20038;-72
2024/01/05 09:07:15;;;;;;;11.25;5.95;;;;;;;;;;4998479;28;20034;-74
2024/01/05 09:09:41;;;;;;;12.25;6.88;;;;;;;;;;5010772;28;20022;-72
2024/01/05 09:12:07;;;;;;;13.68;6.72;;;;;;;;;;5009492;28;20038;-72
2024/01/05 09:14:33;;;;;;;11.45;6.60;;;;;;;;;;4992392;28;20038;-73
2024/01/05 09:16:59;;;;;;;16.73;7.72;;;;;;;;;;4994170;28;20026;-73
2024/01/05 09:19:25;;;;;;;15.02;7.53;;;;;;;;;;4993510;28;20057;-72
2024/01/05 09:21:52;;;;;;;18.17;7.45;;;;;;;;;;4993431;28;20040;-73
2024/01/05 09:24:17;;;;;;;13.35;6.20;;;;;;;;;;4996970;28;20500;-74
2024/01/05 09:26:46;;;;;;;10.98;5.93;;;;;;;;;;4988041;28;20408;-73
2024/01/05 09:29:12;;;;;;;11.85;5.90;;;;;;;;;;4993257;28;20449;-73
2024/01/05 09:31:37;;;;;;;13.40;7.10;;;;;;;;;;4993046;28;20046;-74
2024/01/05 09:34:03;;;;;;;15.25;6.75;;;;;;;;;;5010228;28;20037;-74
2024/01/05 09:36:29;;;;;;;10.13;5.72;;;;;;;;;;5006859;28;20034;-76
2024/01/05 09:38:55;;;;;;;14.48;5.18;;;;;;;;;;5011229;28;20084;-72
2024/01/05 09:41:21;;;;;;;23.02;13.93;;;;;;;;;;5008580;28;20026;-75
2024/01/05 09:43:48;;;;;;;11.07;4.80;;;;;;;;;;4993497;28;20034;-73
2024/01/05 09:46:15;;;;;;;10.48;5.25;;;;;;;;;;4992192;28;20026;-72
2024/01/05 09:48:40;;;;;;;11.05;5.40;;;;;;;;;;5007420;28;20033;-73
2024/01/05 09:51:07;;;;;;;9.40;6.03;;;;;;;;;;5011005;28;20047;-74
2024/01/05 09:53:32;;;;;;;15.95;8.02;;;;;;;;;;5007353;28;20042;-73
2024/01/05 09:55:58;;;;;;;13.70;7.78;;;;;;;;;;5011555;28;20046;-73
2024/01/05 09:58:25;;;;;;;8.05;4.65;;;;;;;;;;4991112;28;20072;-74
2024/01/05 10:00:52;;;;;;;8.90;4.00;;;;;;;;;;5008135;28;20034;-71
2024/01/05 10:03:26;;;;;;;6.90;3.40;;;;;;;;;;4991413;28;20039;-73
2024/01/05 10:05:54;;;;;;;7.53;3.40;;;;;;;;;;5009983;28;20048;-73
2024/01/05 10:08:21;;;;;;;9.50;3.50;;;;;;;;;;4992188;28;20034;-73
2024/01/05 10:10:56;;;;;;;6.38;3.55;;;;;;;;;;4990452;28;20423;-74
2024/01/05 10:13:23;;;;;;;9.07;3.53;;;;;;;;;;4997535;28;20040;-73
2024/01/05 10:16:00;;;;;;;7.22;3.40;;;;;;;;;;5011239;28;20034;-73
2024/01/05 10:18:30;;;;;;;10.40;3.35;;;;;;;;;;5006371;28;20045;-75
2024/01/05 10:21:16;;;;;;;11.07;4.10;;;;;;;;;;5011516;28;20071;-73
2024/01/05 10:23:42;;;;;;;8.20;4.10;;;;;;;;;;5001847;28;20082;-75
2024/01/05 10:26:21;;;;;;;7.75;3.50;;;;;;;;;;4991101;28;20060;-73
2024/01/05 10:28:48;;;;;;;11.45;4.43;;;;;;;;;;4991767;28;20481;-74
2024/01/05 10:31:15;;;;;;;6.28;3.17;;;;;;;;;;4990596;28;20056;-73
2024/01/05 10:33:51;;;;;;;11.48;4.10;;;;;;;;;;4978953;28;20033;-74
2024/01/05 10:36:21;;;;;;;6.03;3.10;;;;;;;;;;4989495;28;20084;-73
2024/01/05 10:38:50;;;;;;;6.90;2.80;;;;;;;;;;4999783;28;20227;-72
2024/01/05 10:41:17;;;;;;;6.75;2.60;;;;;;;;;;4991133;28;20034;-73
2024/01/05 10:43:43;;;;;;;7.03;2.78;;;;;;;;;;4997916;28;20041;-74
2024/01/05 10:46:17;;;;;;;12.82;3.10;;;;;;;;;;5011028;28;20033;-75
2024/01/05 10:48:45;;;;;;;8.32;3.00;;;;;;;;;;4991614;28;20508;-73
2024/01/05 10:51:20;;;;;;;9.90;3.20;;;;;;;;;;5003437;28;20022;-73
2024/01/05 10:53:50;;;;;;;5.30;2.50;;;;;;;;;;5008320;28;20112;-73
2024/01/05 10:56:19;;;;;;;4.70;2.20;;;;;;;;;;5011733;28;20419;-72
2024/01/05 10:58:47;;;;;;;6.35;2.50;;;;;;;;;;4991763;28;20107;-71
2024/01/05 11:01:17;;;;;;;12.45;3.13;;;;;;;;;;4991550;28;20034;-74
2024/01/05 11:03:44;;;;;;;4.53;2.72;;;;;;;;;;4990950;28;20053;-71
2024/01/05 11:06:10;;;;;;;6.43;2.30;;;;;;;;;;4992818;28;20026;-72
2024/01/05 11:08:51;;;;;;;4.13;1.75;;;;;;;;;;4991168;28;20433;-73
2024/01/05 11:11:38;;;;;;;7.95;3.20;;;;;;;;;;4995810;28;20034;-73
2024/01/05 11:14:17;;;;;;;7.38;3.08;;;;;;;;;;5001552;28;20885;-72
2024/01/05 11:17:19;;;;;;;8.18;3.08;;;;;;;;;;5009518;28;20030;-72
2024/01/05 11:20:19;;;;;;;5.60;2.75;;;;;;;;;;5010973;28;20033;-72
2024/01/05 11:22:47;;;;;;;10.02;3.63;;;;;;;;;;5008515;28;20033;-72
2024/01/05 11:25:15;;;;;;;8.02;2.47;;;;;;;;;;5010116;28;20026;-73
2024/01/05 11:27:46;;;;;;;6.13;2.72;;;;;;;;;;5001259;28;20022;-73
2024/01/05 11:30:12;;;;;;;9.25;2.85;;;;;;;;;;4990900;28;20046;-71
2024/01/05 11:32:45;;;;;;;4.82;2.05;;;;;;;;;;4990526;28;20033;-72
2024/01/05 11:35:16;;;;;;;4.63;2.20;;;;;;;;;;4990128;28;20100;-74
2024/01/05 11:37:43;;;;;;;3.03;1.65;;;;;;;;;;4990656;28;20049;-73
2024/01/05 11:40:28;;;;;;;3.35;1.52;;;;;;;;;;4990593;28;20184;-73
2024/01/05 11:42:57;;;;;;;6.57;2.40;;;;;;;;;;4990297;28;20046;-73
2024/01/05 11:45:41;;;;;;;3.33;1.30;;;;;;;;;;4990321;28;20046;-72
2024/01/05 11:48:07;;;;;;;5.82;2.80;;;;;;;;;;4989997;28;20132;-73
2024/01/05 11:50:39;;;;;;;7.30;2.85;;;;;;;;;;4990928;28;20029;-73
2024/01/05 11:53:15;;;;;;;6.57;2.40;;;;;;;;;;5001164;28;20306;-73
2024/01/05 11:55:50;;;;;;;7.63;2.53;;;;;;;;;;5010265;28;20088;-73
2024/01/05 11:58:20;;;;;;;14.05;3.67;;;;;;;;;;4996331;28;20116;-72
2024/01/05 12:00:48;;;;;;;13.02;3.75;;;;;;;;;;4990885;28;20034;-74
2024/01/05 12:03:15;;;;;;;6.88;3.63;;;;;;;;;;4993905;28;20018;-73
2024/01/05 12:05:41;;;;;;;9.60;3.28;;;;;;;;;;5008822;28;20037;-73
2024/01/05 12:08:11;;;;;;;6.95;3.42;;;;;;;;;;5001138;28;20413;-73
2024/01/05 12:10:38;;;;;;;10.38;4.32;;;;;;;;;;4990860;28;20077;-74
2024/01/05 12:13:06;;;;;;;7.07;3.45;;;;;;;;;;4988933;28;20485;-74
2024/01/05 12:15:33;;;;;;;8.57;3.38;;;;;;;;;;4990667;28;20500;-74
2024/01/05 12:18:08;;;;;;;5.45;3.25;;;;;;;;;;4991807;28;20030;-74
2024/01/05 12:20:35;;;;;;;6.25;3.40;;;;;;;;;;4990642;28;20408;-73
2024/01/05 12:23:01;;;;;;;16.75;3.80;;;;;;;;;;4973721;28;20042;-72
2024/01/05 12:25:27;;;;;;;7.80;4.00;;;;;;;;;;4990757;28;20509;-73
2024/01/05 12:27:53;;;;;;;16.35;4.93;;;;;;;;;;4998754;28;20069;-73
2024/01/05 12:30:21;;;;;;;11.52;5.57;;;;;;;;;;4997694;28;20036;-74
2024/01/05 12:32:50;;;;;;;12.95;6.10;;;;;;;;;;4971931;28;20038;-73
2024/01/05 12:35:16;;;;;;;11.18;6.88;;;;;;;;;;5002578;28;20093;-73
2024/01/05 12:37:52;;;;;;;11.98;6.95;;;;;;;;;;4987409;28;20524;-72
2024/01/05 12:40:25;;;;;;;12.27;7.40;;;;;;;;;;4994336;28;20028;-73
2024/01/05 12:42:55;;;;;;;20.48;8.55;;;;;;;;;;5003549;28;20108;-73
2024/01/05 12:45:22;;;;;;;13.45;7.15;;;;;;;;;;4997888;28;20026;-73
2024/01/05 12:47:50;;;;;;;11.57;6.75;;;;;;;;;;5003719;28;20042;-74
2024/01/05 13:58:57;;;;;;;12.43;4.70;;;;;;;;;;5046351;28;20413;-76
2024/01/05 14:02:19;;;;;;;6.90;3.95;;;;;;;;;;5064668;28;20661;-79
2024/01/05 14:04:49;;;;;;;9.25;4.03;;;;;;;;;;5047362;28;20033;-77
2024/01/05 14:07:16;;;;;;;7.35;3.97;;;;;;;;;;5042216;28;20087;-78
2024/01/05 14:09:42;;;;;;;8.63;3.85;;;;;;;;;;5023424;28;20107;-78
2024/01/05 14:12:08;;;;;;;15.50;4.18;;;;;;;;;;5019350;28;20030;-78
2024/01/05 14:14:34;;;;;;;9.60;3.85;;;;;;;;;;5018504;28;20389;-76
2024/01/05 14:17:04;;;;;;;13.38;5.47;;;;;;;;;;5005954;28;20144;-79
2024/01/05 14:19:30;;;;;;;10.43;6.22;;;;;;;;;;5022593;28;20037;-79
2024/01/05 14:21:57;;;;;;;13.88;6.40;;;;;;;;;;5017250;28;20049;-79
2024/01/05 14:24:24;;;;;;;14.82;6.78;;;;;;;;;;5020662;28;20041;-79
2024/01/05 14:26:50;;;;;;;14.07;7.25;;;;;;;;;;5005702;28;20033;-79
2024/01/05 14:29:17;;;;;;;14.75;6.07;;;;;;;;;;4999965;28;20321;-79
2024/01/05 14:31:47;;;;;;;20.10;8.93;;;;;;;;;;5006251;28;20092;-79
2024/01/05 14:34:14;;;;;;;17.58;8.32;;;;;;;;;;5021021;28;20286;-80
2024/01/05 14:36:43;;;;;;;20.27;9.07;;;;;;;;;;5023293;28;20030;-83
2024/01/05 14:39:09;;;;;;;20.42;8.88;;;;;;;;;;5054041;28;20070;-82
2024/01/05 14:41:36;;;;;;;26.05;9.77;;;;;;;;;;5022455;28;20033;-86
2024/01/05 14:44:02;;;;;;;29.38;11.75;;;;;;;;;;5030282;28;20022;-82
2024/01/05 14:46:29;;;;;;;29.23;11.45;;;;;;;;;;5021151;28;20029;-80
2024/01/05 14:48:56;;;;;;;38.25;13.98;;;;;;;;;;5021126;28;20033;-83
2024/01/05 14:51:23;;;;;;;29.77;15.63;;;;;;;;;;5009785;28;20540;-80
2024/01/05 14:53:49;;;;;;;27.05;15.68;;;;;;;;;;5019968;28;20487;-79
2024/01/05 14:56:15;;;;;;;26.23;14.52;;;;;;;;;;5019958;28;20037;-80
2024/01/05 14:58:43;;;;;;;25.60;13.02;;;;;;;;;;5019113;28;20025;-80
2024/01/05 15:01:11;;;;;;;23.98;13.90;;;;;;;;;;5023808;28;20038;-79
2024/01/05 15:03:39;;;;;;;42.33;15.27;;;;;;;;;;5021824;28;20041;-78
2024/01/05 15:06:16;;;;;;;36.95;14.95;;;;;;;;;;5035882;28;20037;-79
2024/01/05 15:09:00;;;;;;;31.45;17.38;;;;;;;;;;5016895;28;20034;-79
2024/01/05 15:11:26;;;;;;;36.70;18.92;;;;;;;;;;5022753;28;20030;-79
2024/01/05 15:13:53;;;;;;;37.58;19.52;;;;;;;;;;5005742;28;20025;-85
2024/01/05 15:16:18;;;;;;;38.42;24.25;;;;;;;;;;5034773;28;20034;-80
2024/01/05 15:18:44;;;;;;;47.92;28.83;;;;;;;;;;5004981;28;20037;-79
2024/01/05 15:21:10;;;;;;;44.33;25.20;;;;;;;;;;5007560;28;20136;-79
2024/01/05 15:23:36;;;;;;;48.42;24.08;;;;;;;;;;5006695;28;20069;-79
2024/01/05 15:26:03;;;;;;;45.38;23.30;;;;;;;;;;5009763;28;20041;-79
2024/01/05 15:28:29;;;;;;;39.90;22.63;;;;;;;;;;5007429;28;20049;-80
2024/01/05 15:30:55;;;;;;;47.00;27.25;;;;;;;;;;5005858;28;20037;-79
2024/01/05 15:33:22;;;;;;;43.70;25.88;;;;;;;;;;5004641;28;20033;-79
2024/01/05 15:35:48;;;;;;;59.15;30.33;;;;;;;;;;5027979;28;20450;-81
2024/01/05 15:38:14;;;;;;;43.35;24.08;;;;;;;;;;5000995;28;20037;-82
2024/01/05 15:40:41;;;;;;;57.92;24.85;;;;;;;;;;4968274;28;20126;-81